Niverville, New York
Current Conditions -  °F | °C
As of 10:54 PM on Tuesday 21 Oct 2014 (Local Time) from KPSF Reporting Station
Overcast Overcast  
Wind Chill: 50°   Ceiling: 1100
Heat Index: 50°   Visibility: 10mi
Dew Point: 48°   Wind: 5mph
Humidity: 93%   Direction: 50°NE
Pressure: 29.98"   Gusts: NA
Location:  42.45°N, 73.65°W
Report Text: KPSF 220254Z AUTO 05004KT 10SM OVC011 10/09 A2998 RMK AO2 SLP144 T01000089 51014
Loading
Personal Weather Stations






























Interactive Weather Map
Tropical Storm Tracking
New forecast layout! Learn more

10-Day Weather Forecast

Advertisements
Track Severe Weather on mobile